createdAt,value
2023-04-24T00:04:22.346Z,3.03
2023-04-24T00:09:24.389Z,3.00
2023-04-24T00:14:25.897Z,3.20
2023-04-24T00:19:29.079Z,3.20
2023-04-24T00:24:30.906Z,3.03
2023-04-24T00:29:32.452Z,2.08
2023-04-24T00:34:33.910Z,2.33
2023-04-24T00:39:35.365Z,2.25
2023-04-24T00:44:36.923Z,2.30
2023-04-24T00:49:38.373Z,2.00
2023-04-24T00:54:39.880Z,1.60
2023-04-24T00:59:42.429Z,1.60
2023-04-24T01:04:44.207Z,1.60
2023-04-24T01:09:48.515Z,1.70
2023-04-24T01:14:50.307Z,1.65
2023-04-24T01:19:54.838Z,1.70
2023-04-24T01:24:56.372Z,1.60
2023-04-24T01:29:58.030Z,1.70
2023-04-24T01:34:59.570Z,1.40
2023-04-24T01:40:01.118Z,1.50
2023-04-24T01:45:04.393Z,1.55
2023-04-24T01:50:06.546Z,1.90
2023-04-24T01:55:08.274Z,2.05
2023-04-24T02:00:09.999Z,1.35
2023-04-24T02:05:12.051Z,1.70
2023-04-24T02:10:13.580Z,1.60
2023-04-24T02:15:15.055Z,1.40
2023-04-24T02:20:16.565Z,1.75
2023-04-24T02:25:18.020Z,1.70
2023-04-24T02:30:19.568Z,1.80
2023-04-24T02:35:21.153Z,2.55
2023-04-24T02:40:22.650Z,2.50
2023-04-24T02:45:24.179Z,3.33
2023-04-24T02:50:25.689Z,3.15
2023-04-24T02:55:27.214Z,3.38
2023-04-24T03:00:28.688Z,3.42
2023-04-24T03:05:31.852Z,3.00
2023-04-24T03:10:33.655Z,3.13
2023-04-24T03:15:35.195Z,2.63
2023-04-24T03:20:38.046Z,3.13
2023-04-24T03:25:39.965Z,3.00
2023-04-24T03:30:41.653Z,3.05
2023-04-24T03:35:43.119Z,3.40
2023-04-24T03:40:44.557Z,2.65
2023-04-24T03:45:46.067Z,2.90
2023-04-24T03:50:47.644Z,3.17
2023-04-24T03:55:49.166Z,3.58
2023-04-24T04:00:50.904Z,3.45
2023-04-24T04:05:52.367Z,3.58
2023-04-24T04:10:53.799Z,3.35
2023-04-24T04:15:55.832Z,3.53
2023-04-24T04:20:58.089Z,3.08
2023-04-24T04:25:59.690Z,3.50
2023-04-24T04:31:02.038Z,4.00
2023-04-24T04:36:04.857Z,3.80
2023-04-24T04:41:06.598Z,4.00
2023-04-24T04:46:09.540Z,3.88
2023-04-24T04:51:11.160Z,3.78
2023-04-24T04:56:13.300Z,3.38
2023-04-24T05:01:15.035Z,2.83
2023-04-24T05:06:16.755Z,2.88
2023-04-24T05:11:18.304Z,3.10
2023-04-24T05:16:19.777Z,2.90
2023-04-24T05:21:21.326Z,2.40
2023-04-24T05:26:23.970Z,2.22
2023-04-24T05:31:26.509Z,1.83
2023-04-24T05:36:28.347Z,2.30
2023-04-24T05:41:29.912Z,3.88
2023-04-24T05:46:31.500Z,5.82
2023-04-24T05:51:33.127Z,10.27
2023-04-24T05:56:34.640Z,9.55
2023-04-24T06:01:37.201Z,9.25
2023-04-24T06:06:38.872Z,7.65
2023-04-24T06:11:40.344Z,7.30
2023-04-24T06:16:43.104Z,6.15
2023-04-24T06:21:44.644Z,7.00
2023-04-24T06:26:46.185Z,7.15
2023-04-24T06:31:47.772Z,7.60
2023-04-24T06:36:49.330Z,6.65
2023-04-24T06:41:50.958Z,7.78
2023-04-24T06:46:52.760Z,6.22
2023-04-24T06:51:54.269Z,5.75
2023-04-24T06:56:56.423Z,6.00
2023-04-24T07:01:58.140Z,6.47
2023-04-24T07:06:59.721Z,5.70
2023-04-24T07:12:01.359Z,5.68
2023-04-24T07:17:03.585Z,6.40
2023-04-24T07:22:05.088Z,5.05
2023-04-24T07:27:06.782Z,5.18
2023-04-24T07:32:08.943Z,4.70
2023-04-24T07:37:10.531Z,4.95
2023-04-24T07:42:12.168Z,5.00
2023-04-24T07:47:13.688Z,4.82
2023-04-24T07:52:15.207Z,4.78
2023-04-24T07:57:17.128Z,3.83
2023-04-24T08:02:18.622Z,3.90
2023-04-24T08:07:20.134Z,3.75
2023-04-24T08:12:21.655Z,3.85
2023-04-24T08:17:23.229Z,4.22
2023-04-24T08:22:25.923Z,3.92
2023-04-24T08:27:27.728Z,3.60
2023-04-24T08:32:30.054Z,3.45
2023-04-24T08:37:31.984Z,3.15
2023-04-24T08:42:35.357Z,3.22
2023-04-24T08:47:37.031Z,3.60
2023-04-24T08:52:38.620Z,2.75
2023-04-24T08:57:41.444Z,2.92
2023-04-24T09:02:44.673Z,2.92
2023-04-24T09:07:47.533Z,2.58
2023-04-24T09:12:50.707Z,2.70
2023-04-24T09:17:52.172Z,3.67
2023-04-24T09:22:57.808Z,2.85
2023-04-24T09:28:01.470Z,2.10
2023-04-24T09:33:13.616Z,2.40
2023-04-24T09:38:15.297Z,2.35
2023-04-24T09:43:17.094Z,2.38
2023-04-24T09:48:18.572Z,3.75
2023-04-24T09:53:24.690Z,2.30
2023-04-24T09:58:27.723Z,2.17
2023-04-24T10:03:32.902Z,2.20
2023-04-24T10:08:35.667Z,2.53
2023-04-24T10:13:37.484Z,2.40
2023-04-24T10:18:40.188Z,1.60
2023-04-24T10:23:42.712Z,1.40
2023-04-24T10:28:48.365Z,1.50
2023-04-24T10:33:51.086Z,1.98
2023-04-24T10:38:53.853Z,1.90
2023-04-24T10:44:13.804Z,1.75
2023-04-24T10:49:15.394Z,1.42
2023-04-24T10:54:24.002Z,1.50
2023-04-24T10:59:26.466Z,2.13
2023-04-24T11:04:33.036Z,1.65
2023-04-24T11:09:36.089Z,1.60
2023-04-24T11:14:56.608Z,2.20
2023-04-24T11:20:18.909Z,1.55
2023-04-24T11:25:31.395Z,1.92
2023-04-24T11:30:34.630Z,1.10
2023-04-24T11:35:38.515Z,1.30
2023-04-24T11:40:40.052Z,1.30
2023-04-24T11:45:48.895Z,1.50
2023-04-24T11:50:50.999Z,1.08
2023-04-24T11:55:52.454Z,1.33
2023-04-24T12:00:58.167Z,1.13
2023-04-24T12:06:09.666Z,1.40
2023-04-24T12:11:11.242Z,1.70
2023-04-24T12:16:14.094Z,2.20
2023-04-24T12:21:21.417Z,1.85
2023-04-24T12:26:24.551Z,2.10
2023-04-24T12:31:27.947Z,1.50
2023-04-24T12:36:32.122Z,1.67
2023-04-24T12:41:34.706Z,2.42
2023-04-24T12:46:36.222Z,1.70
2023-04-24T12:51:37.791Z,1.92
2023-04-24T12:56:40.450Z,3.25
2023-04-24T13:01:42.434Z,3.10
2023-04-24T13:06:44.134Z,2.67
2023-04-24T13:11:45.734Z,3.08
2023-04-24T13:16:47.235Z,2.25
2023-04-24T13:21:48.734Z,2.70
2023-04-24T13:26:50.439Z,2.53
2023-04-24T13:31:52.470Z,2.83
2023-04-24T13:36:55.043Z,2.53
2023-04-24T13:41:56.856Z,2.60
2023-04-24T13:46:58.634Z,4.38
2023-04-24T13:52:00.255Z,2.97
2023-04-24T13:57:02.228Z,3.22
2023-04-24T14:02:03.982Z,3.00
2023-04-24T14:07:06.125Z,2.70
2023-04-24T14:12:08.086Z,2.60
2023-04-24T14:17:09.633Z,2.40
2023-04-24T14:22:11.132Z,2.78
2023-04-24T14:27:12.680Z,2.42
2023-04-24T14:32:16.023Z,3.20
2023-04-24T14:37:18.128Z,3.25
2023-04-24T14:42:19.613Z,3.03
2023-04-24T14:47:22.896Z,3.13
2023-04-24T14:52:24.935Z,3.47
2023-04-24T14:57:27.375Z,3.38
2023-04-24T15:02:29.065Z,3.60
2023-04-24T15:07:31.028Z,4.05
2023-04-24T15:12:32.582Z,3.08
2023-04-24T15:17:34.192Z,2.53
2023-04-24T15:22:36.384Z,2.58
2023-04-24T15:27:44.338Z,2.45
2023-04-24T15:32:46.036Z,2.78
2023-04-24T15:37:47.701Z,3.03
2023-04-24T15:42:49.349Z,2.28
2023-04-24T15:47:51.423Z,2.67
2023-04-24T15:52:52.856Z,1.98
2023-04-24T15:57:54.330Z,1.95
2023-04-24T16:02:55.981Z,2.25
2023-04-24T16:07:57.746Z,2.00
2023-04-24T16:13:01.223Z,2.55
2023-04-24T16:18:02.669Z,1.92
2023-04-24T16:23:04.348Z,2.90
2023-04-24T16:28:05.854Z,1.90
2023-04-24T16:33:09.999Z,2.00
2023-04-24T16:38:11.565Z,1.60
2023-04-24T16:43:13.096Z,1.83
2023-04-24T16:48:14.641Z,2.20
2023-04-24T16:53:16.304Z,1.60
2023-04-24T16:58:17.826Z,1.83
2023-04-24T17:03:19.533Z,1.92
2023-04-24T17:08:22.685Z,2.00
2023-04-24T17:13:24.303Z,2.25
2023-04-24T17:18:25.997Z,2.78
2023-04-24T17:23:27.474Z,2.78
2023-04-24T17:28:30.012Z,3.00
2023-04-24T17:33:31.721Z,2.15
2023-04-24T17:38:33.353Z,2.22
2023-04-24T17:43:34.863Z,2.58
2023-04-24T17:48:36.498Z,2.80
2023-04-24T17:53:38.161Z,3.05
2023-04-24T17:58:40.704Z,2.50
2023-04-24T18:03:43.964Z,2.40
2023-04-24T18:08:45.675Z,2.53
2023-04-24T18:13:47.315Z,2.97
2023-04-24T18:18:49.064Z,2.75
2023-04-24T18:23:50.867Z,2.22
2023-04-24T18:28:52.445Z,2.75
2023-04-24T18:33:55.358Z,3.30
2023-04-24T18:38:56.871Z,2.17
2023-04-24T18:43:59.410Z,2.60
2023-04-24T18:49:01.168Z,2.78
2023-04-24T18:54:02.635Z,2.40
2023-04-24T18:59:04.116Z,2.38
2023-04-24T19:04:05.683Z,3.17
2023-04-24T19:09:07.738Z,2.88
2023-04-24T19:14:09.395Z,3.13
2023-04-24T19:19:11.515Z,3.13
2023-04-24T19:24:13.070Z,3.10
2023-04-24T19:29:14.594Z,2.90
2023-04-24T19:34:16.166Z,3.42
2023-04-24T19:39:17.678Z,3.35
2023-04-24T19:44:20.115Z,3.20
2023-04-24T19:49:21.593Z,3.00
2023-04-24T19:54:23.402Z,2.75
2023-04-24T19:59:24.962Z,3.47
2023-04-24T20:04:26.669Z,3.10
2023-04-24T20:09:28.444Z,2.60
2023-04-24T20:14:30.036Z,2.85
2023-04-24T20:19:31.565Z,3.65
2023-04-24T20:24:33.350Z,3.40
2023-04-24T20:29:35.112Z,3.30
2023-04-24T20:34:37.194Z,3.40
2023-04-24T20:39:39.387Z,3.42
2023-04-24T20:44:41.621Z,3.65
2023-04-24T20:49:43.159Z,3.55
2023-04-24T20:54:44.775Z,3.78
2023-04-24T20:59:46.311Z,3.63
2023-04-24T21:04:47.817Z,3.38
2023-04-24T21:09:49.884Z,3.85
2023-04-24T21:14:51.578Z,3.40
2023-04-24T21:19:53.155Z,3.53
2023-04-24T21:24:54.644Z,4.00
2023-04-24T21:29:56.422Z,3.03
2023-04-24T21:34:59.523Z,3.45
2023-04-24T21:40:01.013Z,2.40
2023-04-24T21:45:02.547Z,3.50
2023-04-24T21:50:07.502Z,2.40
2023-04-24T21:55:09.294Z,2.72
2023-04-24T22:00:11.463Z,3.17
2023-04-24T22:05:18.820Z,3.00
2023-04-24T22:10:20.829Z,3.53
2023-04-24T22:15:23.196Z,3.00
2023-04-24T22:20:26.032Z,4.82
2023-04-24T22:25:27.568Z,3.08
2023-04-24T22:30:29.039Z,3.33
2023-04-24T22:35:30.606Z,4.05
2023-04-24T22:40:32.636Z,3.65
2023-04-24T22:45:34.288Z,3.50
2023-04-24T22:50:35.907Z,3.40
2023-04-24T22:55:37.405Z,3.63
2023-04-24T23:00:39.061Z,4.07
2023-04-24T23:05:40.936Z,3.85
2023-04-24T23:10:42.695Z,2.97
2023-04-24T23:15:44.121Z,3.92
2023-04-24T23:20:45.970Z,3.13
2023-04-24T23:25:47.458Z,3.60
2023-04-24T23:30:49.043Z,3.17
2023-04-24T23:35:50.544Z,3.08
2023-04-24T23:40:52.148Z,2.78
2023-04-24T23:45:53.608Z,2.78
2023-04-24T23:50:55.138Z,2.83
2023-04-24T23:55:56.648Z,3.58
